sensor_id;sensor_type;location;lat;lon;timestamp;P1;durP1;ratioP1;P2;durP2;ratioP2
69026;SDS011;56080;47.594;19.116;2023-09-08T00:04:07;8.50;;;4.90;;
69026;SDS011;56080;47.594;19.116;2023-09-08T00:14:08;7.90;;;4.90;;
69026;SDS011;56080;47.594;19.116;2023-09-08T00:24:11;7.00;;;4.80;;
69026;SDS011;56080;47.594;19.116;2023-09-08T00:34:10;6.70;;;4.50;;
69026;SDS011;56080;47.594;19.116;2023-09-08T00:44:13;9.00;;;5.20;;
69026;SDS011;56080;47.594;19.116;2023-09-08T00:54:13;7.20;;;4.80;;
69026;SDS011;56080;47.594;19.116;2023-09-08T01:04:14;8.10;;;5.10;;
69026;SDS011;56080;47.594;19.116;2023-09-08T01:14:18;7.90;;;5.10;;
69026;SDS011;56080;47.594;19.116;2023-09-08T01:34:19;7.40;;;4.70;;
69026;SDS011;56080;47.594;19.116;2023-09-08T01:44:21;6.70;;;4.40;;
69026;SDS011;56080;47.594;19.116;2023-09-08T01:54:21;7.60;;;4.70;;
69026;SDS011;56080;47.594;19.116;2023-09-08T02:04:22;8.10;;;5.20;;
69026;SDS011;56080;47.594;19.116;2023-09-08T02:14:23;7.90;;;4.70;;
69026;SDS011;56080;47.594;19.116;2023-09-08T02:34:26;7.60;;;5.00;;
69026;SDS011;56080;47.594;19.116;2023-09-08T02:44:28;8.20;;;5.60;;
69026;SDS011;56080;47.594;19.116;2023-09-08T02:54:28;8.40;;;5.50;;
69026;SDS011;56080;47.594;19.116;2023-09-08T03:04:29;9.10;;;5.50;;
69026;SDS011;56080;47.594;19.116;2023-09-08T03:14:31;8.90;;;5.80;;
69026;SDS011;56080;47.594;19.116;2023-09-08T03:24:32;9.20;;;5.70;;
69026;SDS011;56080;47.594;19.116;2023-09-08T03:34:33;7.60;;;4.90;;
69026;SDS011;56080;47.594;19.116;2023-09-08T03:44:34;8.00;;;5.50;;
69026;SDS011;56080;47.594;19.116;2023-09-08T03:54:35;7.80;;;5.00;;
69026;SDS011;56080;47.594;19.116;2023-09-08T04:04:37;7.70;;;5.00;;
69026;SDS011;56080;47.594;19.116;2023-09-08T04:14:40;8.00;;;4.90;;
69026;SDS011;56080;47.594;19.116;2023-09-08T04:24:39;8.20;;;5.20;;
69026;SDS011;56080;47.594;19.116;2023-09-08T04:44:42;9.50;;;5.70;;
69026;SDS011;56080;47.594;19.116;2023-09-08T04:54:43;9.60;;;5.80;;
69026;SDS011;56080;47.594;19.116;2023-09-08T05:04:44;8.00;;;5.00;;
69026;SDS011;56080;47.594;19.116;2023-09-08T05:14:45;10.10;;;5.80;;
69026;SDS011;56080;47.594;19.116;2023-09-08T05:24:47;10.40;;;6.40;;
69026;SDS011;56080;47.594;19.116;2023-09-08T05:34:48;9.60;;;6.50;;
69026;SDS011;56080;47.594;19.116;2023-09-08T05:44:49;9.10;;;5.70;;
69026;SDS011;56080;47.594;19.116;2023-09-08T05:54:50;9.80;;;6.20;;
69026;SDS011;56080;47.594;19.116;2023-09-08T06:04:52;10.00;;;5.70;;
69026;SDS011;56080;47.594;19.116;2023-09-08T06:14:54;10.90;;;6.30;;
69026;SDS011;56080;47.594;19.116;2023-09-08T06:24:55;10.50;;;6.50;;
69026;SDS011;56080;47.594;19.116;2023-09-08T06:34:56;8.30;;;5.40;;
69026;SDS011;56080;47.594;19.116;2023-09-08T06:44:58;8.80;;;6.30;;
69026;SDS011;56080;47.594;19.116;2023-09-08T06:55:00;11.50;;;7.10;;
69026;SDS011;56080;47.594;19.116;2023-09-08T07:05:01;8.70;;;5.90;;
69026;SDS011;56080;47.594;19.116;2023-09-08T07:15:01;8.20;;;5.90;;
69026;SDS011;56080;47.594;19.116;2023-09-08T07:25:03;9.30;;;6.60;;
69026;SDS011;56080;47.594;19.116;2023-09-08T07:35:05;10.10;;;6.20;;
69026;SDS011;56080;47.594;19.116;2023-09-08T07:45:07;7.20;;;5.20;;
69026;SDS011;56080;47.594;19.116;2023-09-08T07:55:08;9.30;;;6.20;;
69026;SDS011;56080;47.594;19.116;2023-09-08T08:05:10;9.90;;;6.50;;
